Alys Beach, FL

11:26 AM CDT on September 30, 2014 (GMT -0500)
Northwest Florida Beaches International | Change Station
CLOSE
Current Station
Airport
Location: Panama City,
Elevation: 69 ft
Nearby Weather Stations

Elev 69 ft 30.36 °N, 85.80 °W | Updated 33 minutes ago

Overcast
Overcast
77 °F
Feels Like 77 °F
N
10
Wind Variable Wind from NNE

Today
High -- | Low -- °F
--% Chance of Precip.
Yesterday
High -- | Low -- °F
Precip. -- in
6:36 AM 6:30 PM
Waxing Crescent, 38% visible
Pressure 29.93 in
Visibility 10.0 miles
Clouds Overcast 1600 ft
Dew Point 69 °F
Humidity 76%
Rainfall 0.02 in
Snow Depth Not available.
UV 2 out of 12
Pollen 7.70 out of 12
Air Quality Not available.
Flu Activity Not available.
METAR KECP 301553Z 03009KT 10SM OVC016 25/21 A2990 RMK AO2 SLP135 T02500206

More Conditions Fewer Conditions

Pressure 29.93 in
Visibility 10.0 miles
Clouds Overcast 1600 ft
Dew Point 69 °F
Humidity 76%
Rainfall 0.02 in
Snow Depth Not available.
UV 2 out of 12
Pollen 7.70 out of 12
Air Quality Not available.
Flu Activity Not available.
METAR KECP 301553Z 03009KT 10SM OVC016 25/21 A2990 RMK AO2 SLP135 T02500206

More Conditions Fewer Conditions

10-Day Weather Forecast

Almanac

Astronomy

Sep. 30, 2014 Rise Set
Actual Time 6:36 AM CDT 6:30 PM CDT
Civil Twilight 6:12 AM CDT 6:54 PM CDT
Nautical Twilight 5:44 AM CDT 7:22 PM CDT
Astronomical Twilight 5:16 AM CDT 7:49 PM CDT
Moon 12:25 PM CDT 11:18 PM CDT
Length of Visible Light 12h 41m
Length of Day
11h 53m
Tomorrow will be 1m 48s shorter.
Waxing Crescent, 38% of the Moon is Illuminated
Today
Waxing Crescent
Oct 1
First Quarter
Oct 8
Full
Oct 15
Last Quarter
Oct 23
New

Today's Extremes

State Highs State Lows

Community

WunderPhotos

Upload Photos

1,757,677 photos uploaded!

Nearby

Snow Depth

Station Depth Elevation
No new snow has been reported.

Earthquake Activity

City Distance Mag. Time & Date
No recent earthquake activity has been reported nearby.
Minimum magnitude displayed is 2.5.

Coastal Water Temperatures

Place Temperature
Panama City, FL 79.0 °F
Panama City Beach, FL 81.0 °F
Apalachicola, FL 78.1 °F

Nearby Weather Stations